createdAt,value
2018-09-18T00:00:42.818Z,78.53
2018-09-18T00:03:46.107Z,78.71
2018-09-18T00:06:49.327Z,80.07
2018-09-18T00:09:52.553Z,81.77
2018-09-18T00:12:55.718Z,80.37
2018-09-18T00:15:58.889Z,81.08
2018-09-18T00:19:02.218Z,82.99
2018-09-18T00:22:05.679Z,82.79
2018-09-18T00:25:08.913Z,82.74
2018-09-18T00:28:12.234Z,82.90
2018-09-18T00:31:15.449Z,82.11
2018-09-18T00:34:18.668Z,82.64
2018-09-18T00:37:22.067Z,82.24
2018-09-18T00:40:25.144Z,82.08
2018-09-18T00:43:28.378Z,82.08
2018-09-18T00:46:31.477Z,81.67
2018-09-18T00:49:34.681Z,81.54
2018-09-18T00:52:37.957Z,80.78
2018-09-18T00:55:41.139Z,82.25
2018-09-18T00:58:44.397Z,81.30
2018-09-18T01:01:47.639Z,82.25
2018-09-18T01:04:51.358Z,83.23
2018-09-18T01:07:54.658Z,81.95
2018-09-18T01:10:57.859Z,82.78
2018-09-18T01:14:01.041Z,82.21
2018-09-18T01:17:04.601Z,80.79
2018-09-18T01:20:07.868Z,82.80
2018-09-18T01:23:11.157Z,82.79
2018-09-18T01:26:14.619Z,82.25
2018-09-18T01:29:17.906Z,82.71
2018-09-18T01:32:21.106Z,83.03
2018-09-18T01:35:24.243Z,84.22
2018-09-18T01:38:27.515Z,82.61
2018-09-18T01:41:30.738Z,82.39
2018-09-18T01:44:34.317Z,83.50
2018-09-18T01:47:37.538Z,84.08
2018-09-18T01:50:40.752Z,82.95
2018-09-18T01:53:43.880Z,83.76
2018-09-18T01:56:47.084Z,83.49
2018-09-18T01:59:51.189Z,83.23
2018-09-18T02:02:54.322Z,83.72
2018-09-18T02:05:57.811Z,83.43
2018-09-18T02:09:00.846Z,85.24
2018-09-18T02:12:04.062Z,85.04
2018-09-18T02:15:07.298Z,86.41
2018-09-18T02:18:10.525Z,85.60
2018-09-18T02:21:13.701Z,84.38
2018-09-18T02:24:16.926Z,84.57
2018-09-18T02:27:19.967Z,84.98
2018-09-18T02:31:26.313Z,85.20
2018-09-18T02:34:29.377Z,85.96
2018-09-18T02:37:32.604Z,85.93
2018-09-18T02:40:35.736Z,86.33
2018-09-18T02:43:39.154Z,85.76
2018-09-18T02:46:42.381Z,86.04
2018-09-18T02:49:45.509Z,84.63
2018-09-18T02:52:48.653Z,86.42
2018-09-18T02:55:51.832Z,86.35
2018-09-18T02:58:55.252Z,86.19
2018-09-18T03:01:58.416Z,86.08
2018-09-18T03:05:01.579Z,85.60
2018-09-18T03:08:04.721Z,86.61
2018-09-18T03:11:08.871Z,87.96
2018-09-18T03:14:12.222Z,87.16
2018-09-18T03:17:15.446Z,86.31
2018-09-18T03:20:18.613Z,86.34
2018-09-18T03:23:22.026Z,86.64
2018-09-18T03:26:25.142Z,86.18
2018-09-18T03:30:32.396Z,86.07
2018-09-18T03:33:35.507Z,87.10
2018-09-18T03:36:38.598Z,86.23
2018-09-18T03:39:41.632Z,86.73
2018-09-18T03:42:44.778Z,88.96
2018-09-18T03:45:48.173Z,87.03
2018-09-18T03:48:51.216Z,87.85
2018-09-18T03:51:54.374Z,86.08
2018-09-18T03:54:57.417Z,86.42
2018-09-18T03:58:00.700Z,87.39
2018-09-18T04:01:03.865Z,87.98
2018-09-18T04:04:06.981Z,88.40
2018-09-18T04:07:10.138Z,89.60
2018-09-18T04:14:20.468Z,88.38
2018-09-18T04:17:23.748Z,87.73
2018-09-18T04:20:26.837Z,88.69
2018-09-18T04:23:30.203Z,88.45
2018-09-18T04:26:33.402Z,89.61
2018-09-18T04:29:36.673Z,89.19
2018-09-18T04:32:39.706Z,88.51
2018-09-18T04:35:42.885Z,87.87
2018-09-18T04:38:45.986Z,89.72
2018-09-18T04:41:49.033Z,88.32
2018-09-18T04:44:52.332Z,89.18
2018-09-18T04:47:55.383Z,88.73
2018-09-18T04:50:58.498Z,88.59
2018-09-18T04:54:01.619Z,88.25
2018-09-18T04:57:04.916Z,88.67
2018-09-18T05:00:08.459Z,90.41
2018-09-18T05:03:11.744Z,90.89
2018-09-18T05:06:14.856Z,90.03
2018-09-18T05:09:18.061Z,89.68
2018-09-18T05:12:21.097Z,89.10
2018-09-18T05:15:24.190Z,89.13
2018-09-18T05:18:27.272Z,88.90
2018-09-18T05:21:30.336Z,89.03
2018-09-18T05:24:33.456Z,88.70
2018-09-18T05:27:37.512Z,87.91
2018-09-18T05:30:40.517Z,89.89
2018-09-18T05:33:43.691Z,91.75
2018-09-18T05:36:46.783Z,89.15
2018-09-18T05:39:49.950Z,88.24
2018-09-18T05:42:53.021Z,87.33
2018-09-18T05:45:56.054Z,85.75
2018-09-18T05:48:59.093Z,82.62
2018-09-18T05:52:02.237Z,82.41
2018-09-18T05:55:05.627Z,78.33
2018-09-18T05:58:08.781Z,78.90
2018-09-18T06:01:11.888Z,77.60
2018-09-18T06:04:15.014Z,78.08
2018-09-18T06:07:18.377Z,76.31
2018-09-18T06:10:21.478Z,75.71
2018-09-18T06:13:24.657Z,79.01
2018-09-18T06:16:27.790Z,75.50
2018-09-18T06:19:30.950Z,74.50
2018-09-18T06:22:34.137Z,73.80
2018-09-18T06:25:37.225Z,75.67
2018-09-18T06:28:40.528Z,74.91
2018-09-18T06:31:43.705Z,72.67
2018-09-18T06:34:46.795Z,67.27
2018-09-18T06:37:49.875Z,66.67
2018-09-18T06:40:53.007Z,68.50
2018-09-18T06:43:56.130Z,68.71
2018-09-18T06:46:59.273Z,65.91
2018-09-18T06:50:02.689Z,66.21
2018-09-18T06:53:06.414Z,63.02
2018-09-18T06:56:09.648Z,61.84
2018-09-18T06:59:12.883Z,63.80
2018-09-18T07:02:16.119Z,63.71
2018-09-18T07:05:19.283Z,64.43
2018-09-18T07:08:23.619Z,66.06
2018-09-18T07:11:26.868Z,67.11
2018-09-18T07:14:29.958Z,68.46
2018-09-18T07:17:33.170Z,70.36
2018-09-18T07:20:36.334Z,68.55
2018-09-18T07:23:39.771Z,66.20
2018-09-18T07:26:43.075Z,68.35
2018-09-18T07:29:46.330Z,67.35
2018-09-18T07:32:49.431Z,65.95
2018-09-18T07:35:52.555Z,65.13
2018-09-18T07:38:55.724Z,64.17
2018-09-18T07:41:58.828Z,63.02
2018-09-18T07:48:15.673Z,67.43
2018-09-18T07:51:18.916Z,69.91
2018-09-18T07:54:21.973Z,72.23
2018-09-18T07:57:25.112Z,70.91
2018-09-18T08:00:28.238Z,69.39
2018-09-18T08:03:31.544Z,66.42
2018-09-18T08:06:34.814Z,65.58
2018-09-18T08:09:38.047Z,66.43
2018-09-18T08:12:41.267Z,64.32
2018-09-18T08:15:44.933Z,63.11
2018-09-18T08:18:49.178Z,63.25
2018-09-18T08:21:52.418Z,66.56
2018-09-18T08:24:55.578Z,64.44
2018-09-18T08:27:58.672Z,62.62
2018-09-18T08:31:01.768Z,62.70
2018-09-18T08:34:04.897Z,62.32
2018-09-18T08:37:07.919Z,63.66
2018-09-18T08:40:11.227Z,61.07
2018-09-18T08:43:14.378Z,61.48
2018-09-18T08:46:17.519Z,60.42
2018-09-18T08:49:20.585Z,59.79
2018-09-18T08:52:23.749Z,60.09
2018-09-18T08:55:27.663Z,58.19
2018-09-18T08:58:30.846Z,57.03
2018-09-18T09:01:33.843Z,55.88
2018-09-18T09:04:37.015Z,55.30
2018-09-18T09:07:40.359Z,55.16
2018-09-18T09:10:43.523Z,56.32
2018-09-18T09:13:46.705Z,56.02
2018-09-18T09:16:49.918Z,55.10
2018-09-18T09:19:53.372Z,55.50
2018-09-18T09:22:56.613Z,54.94
2018-09-18T09:25:59.623Z,56.12
2018-09-18T09:29:02.742Z,54.94
2018-09-18T09:32:06.068Z,55.65
2018-09-18T09:35:09.090Z,53.92
2018-09-18T09:38:12.251Z,53.87
2018-09-18T09:41:15.286Z,52.41
2018-09-18T09:44:18.303Z,52.68
2018-09-18T09:47:21.425Z,49.74
2018-09-18T09:50:24.567Z,51.63
2018-09-18T09:53:27.625Z,51.73
2018-09-18T09:56:30.796Z,52.69
2018-09-18T09:59:34.326Z,51.14
2018-09-18T10:02:43.206Z,51.27
2018-09-18T10:05:46.401Z,52.35
2018-09-18T10:08:49.531Z,51.03
2018-09-18T10:11:52.846Z,49.42
2018-09-18T10:14:56.201Z,49.61
2018-09-18T10:17:59.606Z,48.39
2018-09-18T10:21:02.626Z,48.15
2018-09-18T10:24:06.243Z,47.51
2018-09-18T10:27:09.554Z,46.77
2018-09-18T10:30:12.675Z,46.50
2018-09-18T10:33:15.844Z,46.50
2018-09-18T10:36:19.010Z,47.06
2018-09-18T10:39:22.217Z,46.31
2018-09-18T10:42:25.507Z,45.79
2018-09-18T10:45:28.703Z,47.22
2018-09-18T10:48:36.416Z,46.37
2018-09-18T10:51:39.774Z,45.84
2018-09-18T10:54:42.891Z,45.33
2018-09-18T10:57:45.992Z,45.18
2018-09-18T11:00:49.544Z,45.82
2018-09-18T11:03:52.767Z,46.42
2018-09-18T11:06:56.056Z,46.83
2018-09-18T11:09:59.348Z,47.73
2018-09-18T11:13:02.569Z,48.85
2018-09-18T11:16:06.335Z,47.10
2018-09-18T11:19:11.292Z,48.25
2018-09-18T11:22:14.630Z,47.00
2018-09-18T11:25:17.905Z,49.12
2018-09-18T11:28:21.015Z,47.05
2018-09-18T11:31:24.178Z,47.54
2018-09-18T11:34:27.371Z,48.25
2018-09-18T11:37:30.509Z,47.84
2018-09-18T11:40:34.062Z,49.59
2018-09-18T11:43:38.490Z,50.17
2018-09-18T11:46:41.804Z,46.71
2018-09-18T11:49:46.066Z,48.54
2018-09-18T11:52:49.467Z,47.58
2018-09-18T11:55:52.735Z,47.54
2018-09-18T11:58:56.011Z,48.73
2018-09-18T12:01:59.211Z,49.64
2018-09-18T12:05:02.384Z,47.54
2018-09-18T12:08:05.620Z,48.77
2018-09-18T12:11:08.994Z,47.79
2018-09-18T12:14:12.195Z,49.03
2018-09-18T12:17:15.411Z,47.75
2018-09-18T12:20:18.555Z,48.64
2018-09-18T12:23:21.666Z,47.68
2018-09-18T12:26:24.838Z,47.35
2018-09-18T12:29:27.939Z,46.67
2018-09-18T12:32:31.238Z,48.17
2018-09-18T12:35:35.001Z,48.88
2018-09-18T12:38:38.313Z,48.67
2018-09-18T12:41:42.328Z,48.58
2018-09-18T12:44:45.622Z,48.72
2018-09-18T12:47:49.581Z,47.71
2018-09-18T12:50:52.926Z,47.23
2018-09-18T12:53:56.132Z,46.64
2018-09-18T12:56:59.796Z,46.18
2018-09-18T13:00:03.181Z,46.64
2018-09-18T13:03:07.404Z,47.31
2018-09-18T13:06:10.618Z,46.88
2018-09-18T13:09:13.770Z,46.22
2018-09-18T13:12:16.914Z,45.52
2018-09-18T13:15:20.163Z,47.60
2018-09-18T13:18:23.349Z,45.65
2018-09-18T13:21:26.758Z,45.96
2018-09-18T13:24:29.826Z,46.07
2018-09-18T13:27:33.816Z,46.00
2018-09-18T13:30:37.089Z,46.03
2018-09-18T13:33:40.719Z,46.59
2018-09-18T13:36:43.968Z,46.25
2018-09-18T13:39:47.123Z,46.52
2018-09-18T13:42:50.256Z,46.68
2018-09-18T13:45:53.472Z,46.04
2018-09-18T13:48:56.620Z,45.01
2018-09-18T13:51:59.850Z,45.00
2018-09-18T13:55:03.002Z,44.84
2018-09-18T13:58:06.192Z,45.28
2018-09-18T14:01:09.497Z,45.24
2018-09-18T14:04:13.161Z,46.52
2018-09-18T14:07:17.285Z,46.45
2018-09-18T14:10:21.314Z,46.26
2018-09-18T14:13:25.149Z,45.08
2018-09-18T14:16:29.327Z,45.81
2018-09-18T14:19:33.283Z,45.04
2018-09-18T14:22:37.400Z,45.40
2018-09-18T14:25:41.964Z,45.86
2018-09-18T14:28:46.100Z,45.27
2018-09-18T14:31:50.222Z,44.98
2018-09-18T14:34:54.720Z,45.55
2018-09-18T14:37:58.586Z,44.94
2018-09-18T14:41:02.569Z,43.74
2018-09-18T14:44:05.739Z,44.76
2018-09-18T14:47:08.837Z,43.82
2018-09-18T14:50:12.187Z,45.03
2018-09-18T14:53:15.157Z,45.76
2018-09-18T14:56:18.252Z,46.20
2018-09-18T14:59:21.372Z,46.21
2018-09-18T15:02:24.608Z,46.13
2018-09-18T15:05:27.730Z,46.70
2018-09-18T15:09:34.505Z,47.45
2018-09-18T15:12:37.651Z,46.41
2018-09-18T15:15:40.911Z,44.37
2018-09-18T15:18:43.994Z,44.19
2018-09-18T15:21:47.141Z,44.46
2018-09-18T15:24:50.164Z,45.45
2018-09-18T15:27:53.358Z,45.57
2018-09-18T15:30:56.475Z,45.03
2018-09-18T15:33:59.817Z,44.79
2018-09-18T15:37:02.902Z,43.46
2018-09-18T15:40:06.098Z,44.35
2018-09-18T15:43:10.414Z,44.40
2018-09-18T15:46:14.237Z,44.04
2018-09-18T15:49:17.479Z,45.80
2018-09-18T15:52:20.769Z,42.84
2018-09-18T15:55:24.029Z,41.38
2018-09-18T15:58:28.898Z,40.32
2018-09-18T16:01:32.127Z,41.08
2018-09-18T16:04:35.178Z,42.28
2018-09-18T16:07:38.299Z,42.67
2018-09-18T16:10:41.647Z,43.17
2018-09-18T16:13:44.882Z,42.77
2018-09-18T16:16:48.256Z,44.26
2018-09-18T16:19:51.415Z,44.34
2018-09-18T16:22:54.632Z,44.62
2018-09-18T16:25:57.795Z,44.57
2018-09-18T16:29:00.974Z,44.70
2018-09-18T16:32:04.128Z,44.26
2018-09-18T16:35:07.477Z,44.89
2018-09-18T16:38:10.723Z,45.73
2018-09-18T16:41:13.845Z,45.32
2018-09-18T16:44:17.179Z,46.10
2018-09-18T16:47:20.374Z,46.37
2018-09-18T16:50:23.507Z,46.54
2018-09-18T16:53:26.734Z,46.28
2018-09-18T16:56:30.680Z,46.84
2018-09-18T16:59:33.854Z,46.54
2018-09-18T17:02:37.263Z,47.10
2018-09-18T17:05:40.463Z,46.70
2018-09-18T17:08:43.580Z,47.68
2018-09-18T17:11:46.839Z,48.59
2018-09-18T17:14:49.945Z,47.99
2018-09-18T17:17:53.045Z,49.21
2018-09-18T17:20:56.297Z,49.10
2018-09-18T17:23:59.487Z,49.24
2018-09-18T17:27:02.619Z,49.31
2018-09-18T17:30:06.218Z,50.10
2018-09-18T17:33:09.271Z,50.63
2018-09-18T17:36:12.396Z,50.17
2018-09-18T17:39:15.567Z,51.47
2018-09-18T17:42:18.772Z,50.78
2018-09-18T17:45:22.087Z,51.65
2018-09-18T17:48:25.213Z,51.63
2018-09-18T17:51:28.333Z,51.11
2018-09-18T17:54:31.460Z,51.97
2018-09-18T17:57:34.582Z,51.24
2018-09-18T18:00:37.986Z,52.17
2018-09-18T18:03:41.314Z,51.82
2018-09-18T18:06:44.431Z,52.33
2018-09-18T18:09:47.828Z,52.98
2018-09-18T18:12:50.993Z,52.85
2018-09-18T18:15:54.170Z,53.99
2018-09-18T18:18:57.335Z,54.13
2018-09-18T18:22:00.784Z,54.14
2018-09-18T18:25:03.947Z,53.31
2018-09-18T18:28:07.209Z,53.93
2018-09-18T18:31:10.420Z,53.71
2018-09-18T18:34:13.635Z,53.47
2018-09-18T18:37:16.925Z,53.54
2018-09-18T18:40:20.170Z,53.27
2018-09-18T18:43:23.511Z,53.72
2018-09-18T18:46:26.610Z,53.94
2018-09-18T18:49:36.130Z,54.25
2018-09-18T18:52:39.241Z,54.79
2018-09-18T18:55:42.436Z,54.27
2018-09-18T18:58:45.668Z,55.19
2018-09-18T19:01:48.716Z,54.92
2018-09-18T19:04:51.833Z,54.78
2018-09-18T19:07:55.093Z,55.00
2018-09-18T19:10:58.263Z,55.30
2018-09-18T19:14:01.417Z,56.95
2018-09-18T19:17:04.468Z,56.52
2018-09-18T19:20:07.959Z,57.34
2018-09-18T19:23:11.263Z,57.67
2018-09-18T19:26:14.701Z,59.79
2018-09-18T19:29:17.731Z,60.00
2018-09-18T19:32:21.014Z,60.24
2018-09-18T19:35:27.843Z,58.64
2018-09-18T19:38:31.179Z,58.88
2018-09-18T19:41:34.376Z,57.71
2018-09-18T19:44:37.735Z,59.05
2018-09-18T19:47:40.843Z,58.81
2018-09-18T19:50:44.187Z,59.15
2018-09-18T19:53:47.382Z,58.37
2018-09-18T19:56:50.593Z,59.65
2018-09-18T19:59:53.703Z,58.99
2018-09-18T20:02:56.968Z,58.02
2018-09-18T20:06:00.257Z,58.22
2018-09-18T20:09:05.151Z,59.25
2018-09-18T20:12:08.332Z,59.22
2018-09-18T20:15:11.581Z,60.96
2018-09-18T20:18:14.760Z,60.67
2018-09-18T20:21:17.899Z,59.04
2018-09-18T20:24:21.059Z,59.17
2018-09-18T20:27:24.119Z,59.53
2018-09-18T20:30:27.327Z,58.99
2018-09-18T20:33:30.472Z,59.88
2018-09-18T20:36:33.619Z,59.39
2018-09-18T20:39:36.873Z,60.02
2018-09-18T20:42:40.244Z,60.74
2018-09-18T20:45:43.718Z,60.37
2018-09-18T20:48:46.875Z,60.97
2018-09-18T20:51:50.032Z,60.16
2018-09-18T20:54:53.280Z,59.50
2018-09-18T20:57:56.487Z,60.27
2018-09-18T21:00:59.685Z,60.60
2018-09-18T21:04:02.872Z,61.50
2018-09-18T21:07:05.970Z,60.92
2018-09-18T21:10:09.082Z,60.27
2018-09-18T21:13:12.254Z,61.14
2018-09-18T21:16:15.405Z,61.48
2018-09-18T21:19:18.569Z,61.32
2018-09-18T21:22:21.732Z,59.91
2018-09-18T21:26:03.639Z,58.99
2018-09-18T21:29:06.837Z,57.82
2018-09-18T21:32:09.948Z,59.54
2018-09-18T21:35:13.128Z,58.24
2018-09-18T21:38:16.318Z,58.83
2018-09-18T21:41:19.434Z,58.82
2018-09-18T21:44:22.691Z,58.03
2018-09-18T21:47:26.158Z,58.74
2018-09-18T21:50:31.558Z,58.22
2018-09-18T21:53:34.955Z,59.38
2018-09-18T21:56:38.066Z,58.83
2018-09-18T21:59:41.211Z,59.12
2018-09-18T22:02:44.399Z,59.92
2018-09-18T22:05:47.623Z,60.83
2018-09-18T22:08:50.783Z,60.29
2018-09-18T22:11:53.983Z,61.45
2018-09-18T22:14:57.182Z,60.77
2018-09-18T22:18:00.390Z,59.61
2018-09-18T22:21:03.570Z,59.96
2018-09-18T22:24:06.791Z,60.20
2018-09-18T22:27:10.063Z,59.15
2018-09-18T22:30:13.236Z,59.41
2018-09-18T22:33:16.367Z,58.53
2018-09-18T22:36:19.676Z,60.12
2018-09-18T22:39:22.999Z,60.59
2018-09-18T22:42:27.284Z,61.40
2018-09-18T22:45:30.537Z,61.61
2018-09-18T22:48:33.663Z,62.11
2018-09-18T22:51:36.853Z,64.05
2018-09-18T22:54:40.020Z,61.39
2018-09-18T22:57:43.222Z,61.85
2018-09-18T23:00:46.424Z,61.24
2018-09-18T23:03:49.536Z,62.16
2018-09-18T23:06:52.601Z,62.93
2018-09-18T23:09:55.753Z,64.25
2018-09-18T23:12:58.975Z,65.78
2018-09-18T23:16:02.178Z,66.02
2018-09-18T23:19:05.354Z,67.67
2018-09-18T23:22:08.449Z,70.12
2018-09-18T23:25:11.505Z,70.41
2018-09-18T23:28:14.687Z,69.78
2018-09-18T23:31:17.895Z,70.65
2018-09-18T23:34:21.014Z,69.83
2018-09-18T23:37:24.223Z,68.87
2018-09-18T23:40:27.398Z,67.62
2018-09-18T23:43:30.584Z,68.28
2018-09-18T23:46:33.802Z,70.60
2018-09-18T23:49:36.927Z,70.05
2018-09-18T23:52:40.052Z,72.21
2018-09-18T23:55:43.250Z,72.76
2018-09-18T23:58:46.706Z,70.66
